createdAt,value
2022-12-31T08:18:44.274Z,3.95
2022-12-31T08:21:48.239Z,3.88
2022-12-31T08:24:35.856Z,3.80
2022-12-31T08:28:02.615Z,3.80
2022-12-31T08:33:29.043Z,3.25
2022-12-31T08:36:15.859Z,4.43
2022-12-31T08:39:31.617Z,4.03
2022-12-31T08:42:03.684Z,4.43
2022-12-31T08:45:21.986Z,5.35
2022-12-31T08:48:30.118Z,8.30
2022-12-31T08:50:58.510Z,5.63
2022-12-31T08:53:26.603Z,6.68
2022-12-31T08:56:07.719Z,5.15
2022-12-31T08:58:53.476Z,3.88
2022-12-31T09:01:27.961Z,4.90
2022-12-31T09:04:43.159Z,3.15
2022-12-31T09:07:12.067Z,4.05
2022-12-31T09:10:32.146Z,5.13
2022-12-31T09:13:59.325Z,4.18
2022-12-31T09:17:16.639Z,4.05
2022-12-31T09:19:43.975Z,4.82
2022-12-31T09:22:11.981Z,3.05
2022-12-31T09:24:39.749Z,3.97
2022-12-31T09:27:57.771Z,3.55
2022-12-31T09:30:32.483Z,5.57
2022-12-31T09:34:06.998Z,2.00
2022-12-31T09:36:50.614Z,4.32
2022-12-31T09:39:51.043Z,3.60
2022-12-31T09:43:44.379Z,2.88
2022-12-31T09:47:33.668Z,3.35
2022-12-31T09:51:21.684Z,3.70
2022-12-31T09:54:51.556Z,2.67
2022-12-31T09:58:07.590Z,4.03
2022-12-31T10:01:26.680Z,3.15
2022-12-31T10:05:26.555Z,4.30
2022-12-31T10:08:56.783Z,3.55
2022-12-31T10:12:34.773Z,4.20
2022-12-31T10:15:42.092Z,3.15
2022-12-31T10:19:08.145Z,3.28
2022-12-31T10:22:36.876Z,3.60
2022-12-31T10:26:06.036Z,3.95
2022-12-31T10:29:48.785Z,6.25
2022-12-31T10:32:32.054Z,5.05
2022-12-31T10:35:15.099Z,2.63
2022-12-31T10:38:29.757Z,1.88
2022-12-31T10:41:48.914Z,2.33
2022-12-31T10:44:53.731Z,1.33
2022-12-31T10:48:55.134Z,3.00
2022-12-31T10:51:57.551Z,2.33
2022-12-31T10:55:29.251Z,2.40
2022-12-31T10:58:50.259Z,2.22
2022-12-31T11:01:54.176Z,2.35
2022-12-31T11:05:10.561Z,3.47
2022-12-31T11:08:08.662Z,1.55
2022-12-31T11:11:33.523Z,1.48
2022-12-31T11:14:54.013Z,2.25
2022-12-31T11:18:14.889Z,2.22
2022-12-31T11:21:27.767Z,1.58
2022-12-31T11:24:45.202Z,1.88
2022-12-31T11:28:10.182Z,2.38
2022-12-31T11:31:23.836Z,1.55
2022-12-31T11:34:43.101Z,3.65
2022-12-31T11:37:54.585Z,3.75
2022-12-31T11:41:00.852Z,1.33
2022-12-31T11:43:55.604Z,1.60
2022-12-31T11:46:59.836Z,1.80
2022-12-31T11:50:09.168Z,2.05
2022-12-31T11:53:19.070Z,2.58
2022-12-31T11:56:24.710Z,4.20
2022-12-31T11:58:55.834Z,4.68
2022-12-31T12:02:01.705Z,3.15
2022-12-31T12:04:30.046Z,2.40
2022-12-31T12:06:57.847Z,1.83
2022-12-31T12:09:34.391Z,4.22
2022-12-31T12:12:06.275Z,2.67
2022-12-31T12:14:39.304Z,1.55
2022-12-31T12:17:22.009Z,3.50
2022-12-31T12:19:56.869Z,3.70
2022-12-31T12:22:29.596Z,1.33
2022-12-31T12:25:20.502Z,1.98
2022-12-31T12:27:48.337Z,3.45
2022-12-31T12:30:27.876Z,3.17
2022-12-31T12:33:04.790Z,2.03
2022-12-31T12:35:36.043Z,4.20
2022-12-31T12:38:14.334Z,1.75
2022-12-31T12:40:42.035Z,3.53
2022-12-31T12:43:30.385Z,2.17
2022-12-31T12:46:05.533Z,1.60
2022-12-31T12:48:44.674Z,3.55
2022-12-31T12:52:04.877Z,2.05
2022-12-31T12:55:00.659Z,2.58
2022-12-31T12:57:46.458Z,2.92
2022-12-31T13:00:45.220Z,2.65
2022-12-31T13:04:35.622Z,2.60
2022-12-31T13:07:45.615Z,2.08
2022-12-31T13:11:06.159Z,2.08
2022-12-31T13:14:28.844Z,3.92
2022-12-31T13:18:01.498Z,2.47
2022-12-31T13:21:26.364Z,1.92
2022-12-31T13:24:28.369Z,1.75
2022-12-31T13:27:27.598Z,2.50
2022-12-31T13:30:01.556Z,2.83
2022-12-31T13:33:00.283Z,1.83
2022-12-31T13:35:57.465Z,1.67
2022-12-31T13:38:54.284Z,2.58
2022-12-31T13:41:34.563Z,2.63
2022-12-31T13:44:41.854Z,7.38
2022-12-31T13:47:37.109Z,1.38
2022-12-31T13:50:22.953Z,1.65
2022-12-31T13:53:36.626Z,3.10
2022-12-31T13:56:24.047Z,3.58
2022-12-31T13:59:02.059Z,1.23
2022-12-31T14:01:48.168Z,2.78
2022-12-31T14:04:33.709Z,2.00
2022-12-31T14:07:36.623Z,3.22
2022-12-31T14:10:16.098Z,1.88
2022-12-31T14:13:36.400Z,1.85
2022-12-31T14:17:02.634Z,2.47
2022-12-31T14:20:00.369Z,4.88
2022-12-31T14:23:24.518Z,2.58
2022-12-31T14:26:37.359Z,5.63
2022-12-31T14:29:45.824Z,4.18
2022-12-31T14:33:16.417Z,1.90
2022-12-31T14:36:32.303Z,3.05
2022-12-31T14:40:00.483Z,2.78
2022-12-31T14:43:18.075Z,4.18
2022-12-31T14:46:39.647Z,2.58
2022-12-31T14:50:12.507Z,3.78
2022-12-31T14:53:04.098Z,2.60
2022-12-31T14:55:40.855Z,4.53
2022-12-31T14:58:32.417Z,5.43
2022-12-31T15:01:04.496Z,2.40
2022-12-31T15:03:31.615Z,3.90
2022-12-31T15:06:51.615Z,3.80
2022-12-31T15:10:34.138Z,3.28
2022-12-31T15:13:35.549Z,3.95
2022-12-31T15:16:38.700Z,2.92
2022-12-31T15:20:19.045Z,4.70
2022-12-31T15:22:52.253Z,4.38
2022-12-31T15:25:40.458Z,2.80
2022-12-31T15:28:40.683Z,3.15
2022-12-31T15:31:18.130Z,3.47
2022-12-31T15:34:23.779Z,3.97
2022-12-31T15:37:00.689Z,3.55
2022-12-31T15:39:41.862Z,2.88
2022-12-31T15:43:08.012Z,3.53
2022-12-31T15:45:41.126Z,3.53
2022-12-31T15:48:44.083Z,2.85
2022-12-31T15:51:30.585Z,5.32
2022-12-31T15:54:00.838Z,2.97
2022-12-31T15:56:45.218Z,6.88
2022-12-31T15:59:17.253Z,3.78
2022-12-31T16:01:46.782Z,3.15
2022-12-31T16:04:28.675Z,4.33
2022-12-31T16:07:01.982Z,3.30
2022-12-31T16:09:35.912Z,5.60
2022-12-31T16:12:19.170Z,3.72
2022-12-31T16:14:55.424Z,4.75
2022-12-31T16:17:36.896Z,3.03
2022-12-31T16:20:26.987Z,3.88
2022-12-31T16:22:57.582Z,3.83
2022-12-31T16:25:31.906Z,6.78
2022-12-31T16:28:01.652Z,6.50
2022-12-31T16:30:37.212Z,2.50
2022-12-31T16:33:12.356Z,5.15
2022-12-31T16:35:39.991Z,4.07
2022-12-31T16:38:18.768Z,4.88
2022-12-31T16:41:19.807Z,3.53
2022-12-31T16:43:50.230Z,3.42
2022-12-31T16:46:31.223Z,3.33
2022-12-31T16:49:19.882Z,5.60
2022-12-31T16:51:47.704Z,4.60
2022-12-31T16:54:44.164Z,4.05
2022-12-31T16:57:24.546Z,3.33
2022-12-31T17:00:02.223Z,3.40
2022-12-31T17:02:40.619Z,3.50
2022-12-31T17:05:28.756Z,3.13
2022-12-31T17:07:57.382Z,5.03
2022-12-31T17:10:36.422Z,3.97
2022-12-31T17:13:34.009Z,6.55
2022-12-31T17:16:02.259Z,8.95
2022-12-31T17:18:38.553Z,6.47
2022-12-31T17:21:10.813Z,6.88
2022-12-31T17:23:39.867Z,7.22
2022-12-31T17:26:34.736Z,6.05
2022-12-31T17:29:05.182Z,6.97
2022-12-31T17:31:39.436Z,4.85
2022-12-31T17:34:22.805Z,5.50
2022-12-31T17:37:27.580Z,8.57
2022-12-31T17:42:48.773Z,6.82
2022-12-31T17:45:22.004Z,10.02
2022-12-31T17:47:53.664Z,10.02
2022-12-31T17:50:27.902Z,13.90
2022-12-31T17:53:12.493Z,15.15
2022-12-31T17:55:45.526Z,9.02
2022-12-31T17:58:36.445Z,7.90
2022-12-31T18:01:09.258Z,7.55
2022-12-31T18:03:36.642Z,7.22
2022-12-31T18:06:05.444Z,7.97
2022-12-31T18:08:32.857Z,8.52
2022-12-31T18:11:00.158Z,5.50
2022-12-31T18:13:28.293Z,6.85
2022-12-31T18:15:56.112Z,5.93
2022-12-31T18:18:28.523Z,6.80
2022-12-31T18:21:03.361Z,8.10
2022-12-31T18:23:47.978Z,9.73
2022-12-31T18:26:21.099Z,8.32
2022-12-31T18:28:50.259Z,8.80
2022-12-31T18:31:30.859Z,9.07
2022-12-31T18:33:59.661Z,9.10
2022-12-31T18:36:28.513Z,9.07
2022-12-31T18:38:55.950Z,8.02
2022-12-31T18:41:30.031Z,11.35
2022-12-31T18:43:57.380Z,11.20
2022-12-31T18:46:26.914Z,10.63
2022-12-31T18:48:54.193Z,10.13
2022-12-31T18:51:31.265Z,8.70
2022-12-31T18:54:01.737Z,7.85
2022-12-31T18:56:29.201Z,8.73
2022-12-31T18:58:56.734Z,9.75
2022-12-31T19:01:38.505Z,9.02
2022-12-31T19:04:24.978Z,9.40
2022-12-31T19:06:55.446Z,10.55
2022-12-31T19:12:15.006Z,10.55
2022-12-31T19:14:42.436Z,10.07
2022-12-31T19:19:36.376Z,9.80
2022-12-31T19:22:03.701Z,9.82
2022-12-31T19:24:31.015Z,8.38
2022-12-31T19:26:58.347Z,9.90
2022-12-31T19:29:28.425Z,8.43
2022-12-31T19:31:55.722Z,11.63
2022-12-31T19:34:23.082Z,12.02
2022-12-31T19:36:50.418Z,11.18
2022-12-31T19:39:21.279Z,14.60
2022-12-31T19:44:26.125Z,10.85
2022-12-31T19:46:53.486Z,10.95
2022-12-31T19:49:20.795Z,11.85
2022-12-31T19:51:48.175Z,11.25
2022-12-31T19:54:15.474Z,11.15
2022-12-31T19:56:42.818Z,8.73
2022-12-31T19:59:11.458Z,11.27
2022-12-31T20:01:39.145Z,10.85
2022-12-31T20:04:06.871Z,12.05
2022-12-31T20:06:34.218Z,12.32
2022-12-31T20:09:03.414Z,12.98
2022-12-31T20:11:30.780Z,12.88
2022-12-31T20:13:58.288Z,14.30
2022-12-31T20:16:27.578Z,20.92
2022-12-31T20:18:55.264Z,12.63
2022-12-31T20:21:29.175Z,14.90
2022-12-31T20:23:56.988Z,18.77
2022-12-31T20:26:25.795Z,18.65
2022-12-31T20:28:53.822Z,17.50
2022-12-31T20:31:28.426Z,19.70
2022-12-31T20:33:56.238Z,18.25
2022-12-31T20:36:24.591Z,20.00
2022-12-31T20:38:51.962Z,23.25
2022-12-31T20:41:22.889Z,21.23
2022-12-31T20:43:50.906Z,19.65
2022-12-31T20:46:25.932Z,23.23
2022-12-31T20:49:01.736Z,19.77
